Time;durP1;ratioP1;P1;durP2;ratioP2;P2;SDS_P1;SDS_P2;PMS_P1;PMS_P2;Temp;Humidity;BMP_temperature;BMP_pressure;BME280_temperature;BME280_humidity;BME280_pressure;Samples;Min_cycle;Max_cycle;Signal;HPM_P1;HPM_P2
2021/04/17 00:00:19;;;;;;;22.48;14.00;;;179.80;2176.00;;;;;;4975514;28;20470;-58
2021/04/17 00:02:45;;;;;;;21.98;14.32;;;179.80;2201.60;;;;;;4975534;28;20611;-58
2021/04/17 00:05:12;;;;;;;29.42;17.50;;;179.90;2201.60;;;;;;4975650;28;20054;-62
2021/04/17 00:07:38;;;;;;;33.88;19.30;;;179.80;2252.80;;;;;;4975438;28;20162;-58
2021/04/17 00:10:05;;;;;;;66.32;27.35;;;179.90;2252.80;;;;;;4975414;28;20548;-59
2021/04/17 00:12:31;;;;;;;47.97;23.15;;;179.90;2252.80;;;;;;4975098;28;20057;-64
2021/04/17 00:14:56;;;;;;;30.40;17.98;;;179.80;2252.80;;;;;;4975322;28;20380;-60
2021/04/17 00:17:22;;;;;;;33.45;19.88;;;179.90;2252.80;;;;;;4957996;28;20023;-59
2021/04/17 00:19:53;;;;;;;37.22;23.20;;;179.90;2252.80;;;;;;4975225;28;20119;-60
2021/04/17 00:22:19;;;;;;;44.70;25.98;;;180.00;2252.80;;;;;;4975391;28;20053;-59
2021/04/17 00:24:45;;;;;;;44.28;26.00;;;179.90;2252.80;;;;;;4975251;28;20491;-58
2021/04/17 00:27:11;;;;;;;43.72;25.15;;;180.00;2252.80;;;;;;4975075;28;20117;-58
2021/04/17 00:29:37;;;;;;;41.67;25.52;;;180.00;2252.80;;;;;;4975323;28;20029;-60
2021/04/17 00:32:06;;;;;;;40.80;26.80;;;180.00;2252.80;;;;;;4975284;28;20030;-65
2021/04/17 00:34:31;;;;;;;44.00;27.60;;;180.00;2252.80;;;;;;4974989;28;20034;-58
2021/04/17 00:36:57;;;;;;;55.17;32.25;;;179.90;2252.80;;;;;;4975163;28;20034;-70
2021/04/17 00:39:23;;;;;;;66.78;34.28;;;180.00;2252.80;;;;;;4975299;28;20030;-58
2021/04/17 00:41:49;;;;;;;82.28;38.70;;;180.00;2252.80;;;;;;4974416;28;20071;-62
2021/04/17 00:44:15;;;;;;;50.90;29.33;;;180.00;2252.80;;;;;;4974874;28;20485;-58
2021/04/17 00:46:41;;;;;;;46.60;27.35;;;180.00;2252.80;;;;;;4974918;28;20114;-59
2021/04/17 00:49:08;;;;;;;47.38;26.10;;;180.00;2252.80;;;;;;4974343;28;20035;-58
2021/04/17 00:51:35;;;;;;;44.13;26.85;;;180.10;2252.80;;;;;;4975069;28;20488;-58
2021/04/17 00:54:02;;;;;;;42.88;26.25;;;180.10;2252.80;;;;;;4974847;28;20042;-58
2021/04/17 00:56:28;;;;;;;48.45;27.77;;;180.00;2252.80;;;;;;4974404;28;20035;-62
2021/04/17 00:58:53;;;;;;;68.38;33.80;;;180.10;2252.80;;;;;;4974846;28;20034;-60
2021/04/17 01:01:20;;;;;;;67.78;32.20;;;180.10;2252.80;;;;;;4974902;28;20424;-60
2021/04/17 01:04:07;;;;;;;43.63;24.20;;;180.10;2252.80;;;;;;4974452;28;20027;-58
2021/04/17 01:07:05;;;;;;;46.72;24.35;;;180.10;2176.00;;;;;;4974849;28;20065;-58
2021/04/17 01:09:45;;;;;;;36.72;19.67;;;180.10;2201.60;;;;;;4957300;28;20038;-58
2021/04/17 01:12:13;;;;;;;49.78;24.80;;;180.10;2124.80;;;;;;4974482;28;20051;-58
2021/04/17 01:14:42;;;;;;;32.22;18.52;;;204.80;2099.20;;;;;;4974777;28;20055;-58
2021/04/17 01:17:13;;;;;;;25.45;16.10;;;180.10;2073.60;;;;;;4974632;28;20139;-64
2021/04/17 01:19:39;;;;;;;25.33;15.88;;;180.10;2022.40;;;;;;4974715;28;20054;-58
2021/04/17 01:22:13;;;;;;;25.08;15.07;;;180.10;2022.40;;;;;;4957249;28;20432;-59
2021/04/17 01:24:43;;;;;;;23.85;15.68;;;180.10;1971.20;;;;;;4975083;28;20031;-58
2021/04/17 01:27:09;;;;;;;23.40;15.32;;;180.10;1971.20;;;;;;4974367;28;20035;-57
2021/04/17 01:29:37;;;;;;;22.95;14.50;;;180.10;1945.60;;;;;;4974179;28;20062;-66
2021/04/17 01:32:11;;;;;;;20.13;13.70;;;180.00;1945.60;;;;;;4974506;28;20155;-58
2021/04/17 01:34:42;;;;;;;26.60;15.17;;;180.10;1945.60;;;;;;4974283;28;20436;-58
2021/04/17 01:37:13;;;;;;;25.02;14.38;;;180.10;1920.00;;;;;;4974542;28;20110;-58
2021/04/17 01:39:41;;;;;;;24.33;13.98;;;180.10;1920.00;;;;;;4974608;28;20368;-59
2021/04/17 01:42:14;;;;;;;23.88;13.80;;;180.10;1920.00;;;;;;4974307;28;20030;-60
2021/04/17 01:44:47;;;;;;;23.77;13.75;;;180.00;1920.00;;;;;;4974437;28;20151;-58
2021/04/17 01:47:15;;;;;;;25.58;14.80;;;180.00;1920.00;;;;;;4974215;28;20053;-57
2021/04/17 01:49:48;;;;;;;22.85;14.40;;;180.00;1920.00;;;;;;4974447;28;20046;-58
2021/04/17 01:52:20;;;;;;;24.35;14.48;;;180.00;1920.00;;;;;;4971923;28;20026;-59
2021/04/17 01:54:50;;;;;;;24.45;15.07;;;180.00;1920.00;;;;;;4971737;28;20023;-58
2021/04/17 01:57:21;;;;;;;20.42;13.20;;;180.00;1945.60;;;;;;4971091;28;20030;-58
2021/04/17 01:59:48;;;;;;;21.48;13.68;;;180.00;1920.00;;;;;;4972667;28;20070;-58
2021/04/17 02:02:17;;;;;;;24.40;14.75;;;179.90;1920.00;;;;;;4962042;28;20055;-59
2021/04/17 02:04:44;;;;;;;35.72;20.00;;;180.00;1945.60;;;;;;4961284;28;20888;-58
2021/04/17 02:07:09;;;;;;;20.90;14.13;;;180.00;1945.60;;;;;;4958095;28;20070;-58
2021/04/17 02:09:36;;;;;;;23.50;14.55;;;180.00;1920.00;;;;;;4967245;28;20062;-58
2021/04/17 02:12:02;;;;;;;23.05;14.02;;;180.00;1920.00;;;;;;4959540;28;20055;-58
2021/04/17 02:14:29;;;;;;;24.55;15.60;;;180.00;1945.60;;;;;;4957693;28;20035;-57
2021/04/17 02:17:09;;;;;;;21.52;14.60;;;180.00;1971.20;;;;;;4957215;28;20066;-60
2021/04/17 02:19:42;;;;;;;21.15;14.10;;;180.00;1920.00;;;;;;4955002;29;20075;-58
2021/04/17 02:22:09;;;;;;;23.25;14.80;;;180.00;1920.00;;;;;;4957149;29;20035;-57
2021/04/17 02:24:35;;;;;;;23.85;15.43;;;180.00;1920.00;;;;;;4958180;28;20032;-58
2021/04/17 02:27:01;;;;;;;27.35;15.73;;;179.90;1920.00;;;;;;4958005;28;20476;-57
2021/04/17 02:29:27;;;;;;;25.67;15.63;;;179.80;1945.60;;;;;;4956789;29;20024;-58
2021/04/17 02:31:53;;;;;;;26.58;16.52;;;179.90;1945.60;;;;;;4957951;29;20024;-58
2021/04/17 02:34:20;;;;;;;26.85;16.02;;;180.00;1945.60;;;;;;4958081;28;20035;-58
2021/04/17 02:36:45;;;;;;;24.95;16.10;;;180.00;1945.60;;;;;;4957968;28;20023;-60
2021/04/17 02:39:11;;;;;;;25.70;16.52;;;179.90;1920.00;;;;;;4957792;28;20027;-58
2021/04/17 02:41:37;;;;;;;29.02;16.88;;;179.90;1920.00;;;;;;4957795;28;20038;-59
2021/04/17 02:44:03;;;;;;;26.63;17.08;;;180.00;1920.00;;;;;;4956996;28;20086;-58
2021/04/17 02:46:30;;;;;;;27.15;17.23;;;180.00;1945.60;;;;;;4957616;29;20035;-58
2021/04/17 02:48:55;;;;;;;29.80;18.08;;;180.00;1945.60;;;;;;4956507;28;20035;-58
2021/04/17 02:51:21;;;;;;;29.67;17.35;;;179.90;1945.60;;;;;;4957721;29;20034;-61
2021/04/17 02:53:48;;;;;;;27.13;17.73;;;179.90;1971.20;;;;;;4957653;29;20036;-58
2021/04/17 02:56:15;;;;;;;26.45;17.27;;;179.90;1945.60;;;;;;4957484;28;20109;-60
2021/04/17 02:58:40;;;;;;;27.38;16.65;;;179.90;1920.00;;;;;;4957708;28;20031;-60
2021/04/17 03:01:06;;;;;;;28.08;17.15;;;179.90;1894.40;;;;;;4957455;29;20026;-57
2021/04/17 03:03:32;;;;;;;25.35;16.67;;;180.00;1920.00;;;;;;4957032;28;20031;-59
2021/04/17 03:05:58;;;;;;;28.35;16.40;;;179.90;1894.40;;;;;;4957322;29;20042;-58
2021/04/17 03:08:24;;;;;;;26.83;16.95;;;179.90;1920.00;;;;;;4957643;28;20038;-58
2021/04/17 03:10:49;;;;;;;29.65;16.83;;;179.90;1920.00;;;;;;4956915;28;20030;-58
2021/04/17 03:13:15;;;;;;;27.85;17.60;;;179.90;1945.60;;;;;;4956462;28;20385;-58
2021/04/17 03:15:41;;;;;;;23.90;15.48;;;179.80;2048.00;;;;;;4957035;28;20027;-58
2021/04/17 03:18:07;;;;;;;25.48;15.15;;;179.70;2099.20;;;;;;4957057;29;20035;-60
2021/04/17 03:20:33;;;;;;;21.42;14.18;;;179.70;2150.40;;;;;;4957076;28;20026;-63
2021/04/17 03:22:58;;;;;;;19.95;13.73;;;179.70;2176.00;;;;;;4957172;28;20039;-58
2021/04/17 03:25:24;;;;;;;21.60;14.13;;;179.60;2227.20;;;;;;4957153;28;20046;-58
2021/04/17 03:27:50;;;;;;;21.35;13.90;;;179.60;2201.60;;;;;;4956885;29;20130;-63
2021/04/17 03:30:19;;;;;;;21.10;14.07;;;179.60;2227.20;;;;;;4957129;28;20078;-58
2021/04/17 03:32:45;;;;;;;21.13;13.80;;;179.60;2227.20;;;;;;4957034;29;20055;-68
2021/04/17 03:35:12;;;;;;;21.33;14.20;;;179.60;2252.80;;;;;;4955706;29;20033;-58
2021/04/17 03:37:40;;;;;;;67.72;37.72;;;179.60;2252.80;;;;;;4957067;29;20043;-58
2021/04/17 03:40:08;;;;;;;54.08;29.35;;;179.60;2227.20;;;;;;4956771;28;20066;-67
2021/04/17 03:42:33;;;;;;;25.67;15.88;;;179.50;2252.80;;;;;;4956825;28;20036;-73
2021/04/17 03:44:59;;;;;;;24.95;16.63;;;179.40;2252.80;;;;;;4956861;29;20493;-58
2021/04/17 03:47:25;;;;;;;21.38;14.95;;;179.30;2252.80;;;;;;4956514;28;20362;-68
2021/04/17 03:49:51;;;;;;;23.67;15.57;;;179.30;2252.80;;;;;;4956547;29;20038;-58
2021/04/17 03:52:17;;;;;;;19.35;13.65;;;179.30;2252.80;;;;;;4956510;29;20023;-57
2021/04/17 03:54:43;;;;;;;21.25;13.60;;;179.30;2252.80;;;;;;4956309;28;20034;-58
2021/04/17 03:57:09;;;;;;;19.38;13.00;;;179.40;2252.80;;;;;;4956205;29;20086;-57
2021/04/17 03:59:35;;;;;;;23.20;14.38;;;179.30;2252.80;;;;;;4956269;29;20034;-57
2021/04/17 04:02:00;;;;;;;19.63;13.27;;;179.30;2252.80;;;;;;4956814;29;20027;-58
2021/04/17 04:04:26;;;;;;;22.80;14.02;;;179.30;2252.80;;;;;;4956156;29;20030;-59
2021/04/17 04:06:52;;;;;;;23.95;14.48;;;179.30;2252.80;;;;;;4956702;29;20039;-64
2021/04/17 04:09:17;;;;;;;30.83;19.75;;;179.30;2252.80;;;;;;4956222;29;20034;-63
2021/04/17 04:11:43;;;;;;;28.15;17.60;;;179.30;2227.20;;;;;;4955886;29;20055;-57
2021/04/17 04:14:09;;;;;;;25.73;16.17;;;179.30;2227.20;;;;;;4956058;28;20520;-57
2021/04/17 04:16:35;;;;;;;24.73;16.35;;;179.40;2201.60;;;;;;4956188;28;20023;-58
2021/04/17 04:19:00;;;;;;;24.63;16.25;;;179.40;2201.60;;;;;;4956301;29;20495;-58
2021/04/17 04:21:26;;;;;;;22.48;15.48;;;179.50;2176.00;;;;;;4956068;29;20453;-57
2021/04/17 04:23:52;;;;;;;21.83;14.60;;;179.60;2176.00;;;;;;4955121;28;20113;-58
2021/04/17 04:26:17;;;;;;;24.15;15.10;;;179.60;2176.00;;;;;;4955749;29;20111;-57
2021/04/17 04:28:43;;;;;;;24.30;15.25;;;179.60;2201.60;;;;;;4956007;29;20031;-57
2021/04/17 04:31:09;;;;;;;21.35;14.75;;;179.60;2201.60;;;;;;4956063;28;20416;-57
2021/04/17 04:33:35;;;;;;;21.08;13.88;;;179.70;2201.60;;;;;;4954458;29;20054;-58
2021/04/17 04:36:00;;;;;;;20.48;13.43;;;179.60;2201.60;;;;;;4955902;28;20083;-58
2021/04/17 04:38:26;;;;;;;21.70;13.35;;;179.60;2201.60;;;;;;4955777;28;20027;-58
2021/04/17 04:40:52;;;;;;;21.30;13.57;;;179.40;2252.80;;;;;;4955746;29;20057;-61
2021/04/17 04:43:17;;;;;;;24.85;16.02;;;179.40;2252.80;;;;;;4955699;29;20031;-58
2021/04/17 04:45:43;;;;;;;42.05;23.50;;;179.50;2252.80;;;;;;4955890;29;20042;-57
2021/04/17 04:48:09;;;;;;;38.90;23.50;;;179.50;2252.80;;;;;;4955556;29;20370;-63
2021/04/17 04:50:39;;;;;;;31.38;21.52;;;179.50;2252.80;;;;;;4955240;28;20074;-57
2021/04/17 04:53:04;;;;;;;26.48;18.20;;;179.60;2252.80;;;;;;4955610;28;20114;-66
2021/04/17 04:55:30;;;;;;;24.85;17.02;;;179.60;2252.80;;;;;;4955800;29;20432;-58
2021/04/17 04:57:56;;;;;;;36.33;22.02;;;179.50;2252.80;;;;;;4955342;28;20035;-60
2021/04/17 05:00:23;;;;;;;30.60;19.70;;;179.50;2252.80;;;;;;4955374;28;20425;-65
2021/04/17 05:02:49;;;;;;;28.83;18.95;;;179.50;2252.80;;;;;;4955548;28;20399;-59
2021/04/17 05:05:15;;;;;;;36.60;23.70;;;179.60;2252.80;;;;;;4955452;28;20028;-61
2021/04/17 05:07:41;;;;;;;29.92;20.75;;;179.60;2252.80;;;;;;4953653;29;20051;-58
2021/04/17 05:10:08;;;;;;;38.95;26.48;;;179.70;2252.80;;;;;;4955380;29;20030;-61
2021/04/17 05:12:34;;;;;;;29.83;20.20;;;179.80;2227.20;;;;;;4955032;29;20051;-57
2021/04/17 05:15:00;;;;;;;28.10;18.90;;;179.70;2227.20;;;;;;4955539;28;20115;-58
2021/04/17 05:17:25;;;;;;;28.58;18.88;;;179.80;2227.20;;;;;;4954145;29;20031;-58
2021/04/17 05:19:53;;;;;;;25.65;17.33;;;179.90;2227.20;;;;;;4955439;28;20035;-57
2021/04/17 05:22:19;;;;;;;25.90;17.13;;;180.00;2252.80;;;;;;4955328;28;20380;-57
2021/04/17 05:24:45;;;;;;;27.35;19.90;;;180.00;2252.80;;;;;;4955057;29;20036;-63
2021/04/17 05:27:11;;;;;;;27.98;19.65;;;180.00;2252.80;;;;;;4955428;28;20047;-62
2021/04/17 05:29:37;;;;;;;27.92;20.33;;;180.00;2252.80;;;;;;4955114;29;20079;-58
2021/04/17 05:32:02;;;;;;;32.17;22.30;;;180.10;2252.80;;;;;;4953370;29;20178;-58
2021/04/17 05:34:29;;;;;;;35.05;23.20;;;204.80;2227.20;;;;;;4956084;28;20031;-61
2021/04/17 05:36:54;;;;;;;47.35;28.02;;;204.90;2176.00;;;;;;4959135;29;20063;-58
2021/04/17 05:39:20;;;;;;;27.52;19.13;;;204.80;2124.80;;;;;;4959195;29;20102;-57
2021/04/17 05:41:46;;;;;;;25.30;16.27;;;204.80;2176.00;;;;;;4958910;28;20390;-57
2021/04/17 05:44:12;;;;;;;29.33;20.05;;;204.90;2150.40;;;;;;4958455;29;20074;-60
2021/04/17 05:46:42;;;;;;;32.45;21.05;;;204.90;2124.80;;;;;;4958626;28;20118;-57
2021/04/17 05:49:09;;;;;;;37.00;26.60;;;205.10;2150.40;;;;;;4958754;28;20473;-58
2021/04/17 05:51:38;;;;;;;36.25;25.45;;;205.20;2099.20;;;;;;4958770;28;20066;-58
2021/04/17 05:54:04;;;;;;;24.90;16.25;;;205.30;2099.20;;;;;;4958791;29;20030;-59
2021/04/17 05:56:30;;;;;;;157.85;57.42;;;205.30;2099.20;;;;;;4957379;29;20040;-59
2021/04/17 05:58:56;;;;;;;138.52;48.33;;;205.10;2124.80;;;;;;4948502;29;20469;-59
2021/04/17 06:01:22;;;;;;;84.43;36.33;;;204.90;2150.40;;;;;;4946968;29;20044;-61
2021/04/17 06:03:47;;;;;;;158.10;53.35;;;205.00;2124.80;;;;;;4947660;29;20546;-58
2021/04/17 06:06:13;;;;;;;97.13;35.53;;;205.20;2099.20;;;;;;4948409;29;20019;-61
2021/04/17 06:08:41;;;;;;;246.02;67.82;;;205.20;2099.20;;;;;;4944576;29;20067;-61
2021/04/17 06:11:07;;;;;;;125.80;40.38;;;205.10;2150.40;;;;;;4948990;29;20031;-65
2021/04/17 06:13:34;;;;;;;40.38;20.70;;;205.10;2176.00;;;;;;4957116;29;20031;-62
2021/04/17 06:16:05;;;;;;;32.83;18.85;;;205.20;2176.00;;;;;;4957919;29;20035;-61
2021/04/17 06:18:32;;;;;;;28.58;17.63;;;205.20;2201.60;;;;;;4958136;29;20106;-57
2021/04/17 06:20:57;;;;;;;29.38;18.75;;;205.30;2176.00;;;;;;4957615;29;20473;-58
2021/04/17 06:23:23;;;;;;;32.25;19.40;;;205.60;2176.00;;;;;;4957593;29;20019;-58
2021/04/17 06:25:49;;;;;;;45.28;23.05;;;205.70;2073.60;;;;;;4957665;29;20037;-58
2021/04/17 06:28:16;;;;;;;31.20;18.70;;;205.70;2022.40;;;;;;4957698;29;20366;-63
2021/04/17 06:30:42;;;;;;;35.20;21.33;;;205.70;1996.80;;;;;;4957836;29;20030;-58
2021/04/17 06:33:09;;;;;;;30.17;19.42;;;205.60;1996.80;;;;;;4958041;29;20030;-60
2021/04/17 06:35:36;;;;;;;29.75;18.30;;;230.40;1971.20;;;;;;4957923;29;20516;-57
2021/04/17 06:38:03;;;;;;;23.63;16.17;;;230.60;1945.60;;;;;;4957803;29;20473;-63
2021/04/17 06:40:29;;;;;;;24.88;17.42;;;230.70;1817.60;;;;;;4957986;29;20114;-57
2021/04/17 06:42:58;;;;;;;25.70;17.40;;;230.60;1843.20;;;;;;4957681;29;20460;-58
2021/04/17 06:45:24;;;;;;;26.08;17.67;;;230.70;1817.60;;;;;;4957399;28;20034;-57
2021/04/17 06:47:50;;;;;;;21.75;15.63;;;230.90;1843.20;;;;;;4956921;29;20035;-58
2021/04/17 06:50:18;;;;;;;22.95;15.85;;;231.20;1792.00;;;;;;4957576;29;20504;-58
2021/04/17 06:52:47;;;;;;;27.73;17.40;;;256.10;1689.60;;;;;;4957789;29;20118;-58
2021/04/17 06:55:13;;;;;;;26.38;19.63;;;256.40;1715.20;;;;;;4957565;29;20075;-59
2021/04/17 06:57:41;;;;;;;25.90;18.33;;;256.60;1740.80;;;;;;4957377;29;20445;-57
2021/04/17 07:00:09;;;;;;;33.53;20.67;;;281.60;1766.40;;;;;;4957354;29;20023;-57
2021/04/17 07:02:35;;;;;;;25.13;17.15;;;281.70;1740.80;;;;;;4957574;29;20110;-58
2021/04/17 07:05:01;;;;;;;32.40;20.77;;;281.90;1715.20;;;;;;4957532;29;20105;-58
2021/04/17 07:07:31;;;;;;;41.40;25.85;;;282.10;1664.00;;;;;;4957347;29;20046;-58
2021/04/17 07:09:57;;;;;;;27.05;19.05;;;282.10;1664.00;;;;;;4957353;29;20019;-57
2021/04/17 07:12:22;;;;;;;21.05;16.20;;;282.40;1664.00;;;;;;4957050;29;20146;-58
2021/04/17 07:14:52;;;;;;;23.80;17.73;;;307.20;1664.00;;;;;;4957194;29;20385;-57
2021/04/17 07:17:18;;;;;;;82.28;40.80;;;307.20;1612.80;;;;;;4957245;29;20059;-57
2021/04/17 07:19:50;;;;;;;31.48;20.35;;;307.20;1638.40;;;;;;4957144;29;20536;-59
2021/04/17 07:22:23;;;;;;;23.10;16.48;;;307.50;1612.80;;;;;;4957209;29;20054;-58
2021/04/17 07:25:12;;;;;;;33.75;22.85;;;307.60;1638.40;;;;;;4956753;29;20035;-57
2021/04/17 07:27:37;;;;;;;38.75;25.42;;;307.80;1587.20;;;;;;4956851;29;20043;-57
2021/04/17 07:30:23;;;;;;;20.05;14.10;;;308.10;1484.80;;;;;;4956675;29;20029;-58
2021/04/17 07:33:04;;;;;;;24.08;17.58;;;308.10;1433.60;;;;;;4956538;28;20035;-58
2021/04/17 07:35:44;;;;;;;20.40;14.50;;;333.00;1459.20;;;;;;4956526;29;20110;-57
2021/04/17 07:38:17;;;;;;;19.83;14.45;;;333.00;1356.80;;;;;;4956918;29;20362;-61
2021/04/17 07:41:06;;;;;;;18.80;13.02;;;333.30;1331.20;;;;;;4955869;29;20515;-60
2021/04/17 07:43:54;;;;;;;16.40;11.52;;;333.30;1331.20;;;;;;4953996;29;20031;-57
2021/04/17 07:46:24;;;;;;;15.10;11.73;;;333.50;1254.40;;;;;;4953674;29;20046;-57
2021/04/17 07:48:51;;;;;;;17.40;13.25;;;333.70;1280.00;;;;;;4954256;29;20031;-57
2021/04/17 07:51:19;;;;;;;17.00;12.82;;;358.40;1331.20;;;;;;4953742;29;20031;-57
2021/04/17 07:53:45;;;;;;;17.13;12.90;;;358.70;1305.60;;;;;;4953741;29;20532;-62
2021/04/17 07:56:46;;;;;;;17.10;12.60;;;358.50;1280.00;;;;;;4956350;29;20032;-60
2021/04/17 07:59:13;;;;;;;18.17;12.88;;;358.70;1280.00;;;;;;4915923;29;20549;-60
2021/04/17 08:01:41;;;;;;;22.50;14.05;;;358.80;1254.40;;;;;;4916183;29;20521;-64
2021/04/17 08:04:08;;;;;;;24.42;15.32;;;359.20;1228.80;;;;;;4916289;29;20115;-58
2021/04/17 08:06:35;;;;;;;44.35;20.10;;;359.10;1126.40;;;;;;4916273;29;20483;-57
2021/04/17 08:09:02;;;;;;;29.55;15.75;;;359.00;1049.60;;;;;;4915889;29;20068;-60
2021/04/17 08:11:30;;;;;;;46.92;21.67;;;359.30;1024.00;;;;;;4915862;29;20402;-65
2021/04/17 08:13:57;;;;;;;24.25;14.80;;;384.10;1049.60;;;;;;4915837;29;20036;-60
2021/04/17 08:16:23;;;;;;;13.68;10.60;;;384.50;1049.60;;;;;;4915965;29;20075;-61
2021/04/17 08:18:49;;;;;;;13.07;10.52;;;384.70;1049.60;;;;;;4915890;29;20040;-61
2021/04/17 08:21:18;;;;;;;15.18;11.02;;;384.80;1024.00;;;;;;4915932;29;20091;-59
2021/04/17 08:23:46;;;;;;;14.88;10.82;;;384.80;1049.60;;;;;;4916011;29;20456;-58
2021/04/17 08:26:13;;;;;;;42.28;26.60;;;409.60;1024.00;;;;;;4915697;29;20043;-60
2021/04/17 08:28:44;;;;;;;53.65;31.65;;;384.80;998.40;;;;;;4915493;29;20217;-61
2021/04/17 08:31:44;;;;;;;17.02;12.60;;;384.70;1049.60;;;;;;4915490;29;20371;-63
2021/04/17 08:34:11;;;;;;;14.55;11.05;;;384.30;1024.00;;;;;;4895237;29;20506;-63
2021/04/17 08:36:41;;;;;;;14.50;11.18;;;359.30;1075.20;;;;;;4896762;29;20032;-65
2021/04/17 08:39:28;;;;;;;13.50;10.50;;;384.00;1075.20;;;;;;4896732;29;20088;-61
2021/04/17 08:41:54;;;;;;;14.55;11.25;;;359.20;1100.80;;;;;;4896889;29;20033;-58
2021/04/17 08:44:33;;;;;;;16.58;11.80;;;358.90;1126.40;;;;;;4896432;29;20479;-57
2021/04/17 08:47:04;;;;;;;42.38;24.38;;;359.20;1100.80;;;;;;4896380;29;20380;-59
2021/04/17 08:49:32;;;;;;;34.05;25.92;;;384.10;1075.20;;;;;;4896687;29;20029;-63
2021/04/17 08:52:23;;;;;;;26.90;17.60;;;384.30;1075.20;;;;;;4896580;29;20048;-57
2021/04/17 08:55:00;;;;;;;26.65;19.02;;;384.30;1049.60;;;;;;4887443;29;20028;-64
2021/04/17 08:57:26;;;;;;;29.70;20.70;;;384.10;1049.60;;;;;;4908575;29;20131;-63
2021/04/17 09:00:04;;;;;;;18.88;13.75;;;359.10;1100.80;;;;;;4914861;29;20175;-65
2021/04/17 09:02:30;;;;;;;17.52;12.63;;;359.30;1100.80;;;;;;4914313;29;20055;-63
2021/04/17 09:05:06;;;;;;;19.48;14.73;;;359.00;1100.80;;;;;;4914140;29;20187;-63
2021/04/17 09:07:34;;;;;;;17.88;12.98;;;359.10;1100.80;;;;;;4913120;29;20040;-60
2021/04/17 09:10:25;;;;;;;15.38;11.45;;;359.20;1126.40;;;;;;4935062;28;20039;-63
2021/04/17 09:13:09;;;;;;;14.35;10.77;;;359.20;1100.80;;;;;;4993306;28;20491;-62
2021/04/17 09:15:52;;;;;;;21.10;15.47;;;384.20;1075.20;;;;;;4997641;28;20040;-65
2021/04/17 09:18:32;;;;;;;22.92;16.10;;;384.50;1049.60;;;;;;4996699;28;20363;-58
2021/04/17 09:21:18;;;;;;;27.77;18.40;;;384.20;1049.60;;;;;;4997712;28;20046;-58
2021/04/17 09:23:52;;;;;;;17.13;13.15;;;384.10;1049.60;;;;;;4918233;29;20486;-65
2021/04/17 09:26:30;;;;;;;22.05;15.20;;;384.00;1075.20;;;;;;4918219;29;20115;-62
2021/04/17 09:28:57;;;;;;;29.75;19.40;;;359.30;1075.20;;;;;;4918548;29;20542;-60
2021/04/17 09:31:23;;;;;;;29.42;16.30;;;384.20;1075.20;;;;;;4918550;29;20059;-60
2021/04/17 09:34:11;;;;;;;14.88;11.00;;;384.20;1049.60;;;;;;4902632;29;20028;-67
2021/04/17 09:36:37;;;;;;;20.48;14.52;;;384.90;1024.00;;;;;;4918518;29;20106;-67
2021/04/17 09:39:30;;;;;;;34.15;21.55;;;410.20;972.80;;;;;;4918505;29;20036;-65
2021/04/17 09:42:04;;;;;;;27.83;16.67;;;410.50;921.60;;;;;;4918378;29;20028;-60
2021/04/17 09:44:44;;;;;;;25.95;16.95;;;435.40;947.20;;;;;;4918012;29;20470;-68
2021/04/17 09:47:14;;;;;;;17.30;13.65;;;435.40;896.00;;;;;;4909855;29;20163;-65
2021/04/17 09:49:43;;;;;;;16.63;13.13;;;435.70;896.00;;;;;;4880673;29;20025;-66
2021/04/17 09:52:12;;;;;;;15.85;11.80;;;435.40;921.60;;;;;;4880755;29;20033;-57
2021/04/17 09:54:37;;;;;;;14.73;11.73;;;435.70;870.40;;;;;;4881044;29;20134;-58
2021/04/17 09:57:08;;;;;;;14.40;11.82;;;435.40;870.40;;;;;;4886849;29;20028;-57
2021/04/17 09:59:34;;;;;;;14.13;11.75;;;435.70;921.60;;;;;;4891875;29;20045;-57
2021/04/17 10:02:01;;;;;;;14.68;11.02;;;436.00;870.40;;;;;;4973152;28;20034;-65
2021/04/17 10:04:47;;;;;;;14.77;11.60;;;461.00;844.80;;;;;;4976350;28;20022;-58
2021/04/17 10:07:13;;;;;;;14.63;11.75;;;436.10;844.80;;;;;;4910177;29;20059;-65
2021/04/17 10:09:39;;;;;;;26.17;17.80;;;436.00;870.40;;;;;;4922842;29;20039;-67
2021/04/17 10:12:08;;;;;;;16.67;12.93;;;460.80;844.80;;;;;;4924142;29;20404;-65
2021/04/17 10:14:35;;;;;;;14.25;12.00;;;460.80;896.00;;;;;;4926459;29;20123;-59
2021/04/17 10:17:00;;;;;;;17.15;13.40;;;436.10;870.40;;;;;;4924747;29;20514;-66
2021/04/17 10:19:29;;;;;;;14.18;11.80;;;435.80;896.00;;;;;;4925919;29;20050;-62
2021/04/17 10:22:01;;;;;;;15.45;12.57;;;435.70;921.60;;;;;;4922098;29;21414;-66
2021/04/17 10:24:28;;;;;;;13.52;11.10;;;435.40;896.00;;;;;;4923678;29;20058;-61
2021/04/17 10:27:04;;;;;;;15.13;12.25;;;410.50;896.00;;;;;;4924229;29;20039;-58
2021/04/17 10:29:51;;;;;;;22.98;16.58;;;410.30;896.00;;;;;;4924499;29;20066;-63
2021/04/17 10:32:25;;;;;;;19.65;14.68;;;410.10;947.20;;;;;;4926532;29;20520;-64
2021/04/17 10:35:05;;;;;;;26.75;19.27;;;410.10;998.40;;;;;;4934740;29;20032;-60
2021/04/17 10:37:43;;;;;;;32.83;23.50;;;409.70;998.40;;;;;;4926360;29;20164;-62
2021/04/17 10:40:14;;;;;;;22.52;17.10;;;384.60;1049.60;;;;;;4917255;29;20032;-65
2021/04/17 10:42:55;;;;;;;21.70;16.52;;;384.50;1049.60;;;;;;4916634;29;20032;-65
2021/04/17 10:45:29;;;;;;;35.88;24.25;;;384.20;1075.20;;;;;;4954633;29;20039;-60
2021/04/17 10:48:05;;;;;;;26.58;20.58;;;384.20;1075.20;;;;;;4957226;29;20042;-65
2021/04/17 10:50:36;;;;;;;25.52;18.08;;;359.10;1126.40;;;;;;4957229;29;20511;-58
2021/04/17 10:53:13;;;;;;;26.90;19.02;;;359.00;1126.40;;;;;;4957745;29;20054;-57
2021/04/17 10:55:45;;;;;;;21.00;15.65;;;358.90;1152.00;;;;;;4957387;29;20550;-57
2021/04/17 10:58:33;;;;;;;22.67;17.13;;;358.90;1126.40;;;;;;4957382;29;20366;-58
2021/04/17 11:01:03;;;;;;;28.98;20.10;;;358.80;1152.00;;;;;;4957307;29;20047;-58
2021/04/17 11:03:31;;;;;;;26.27;18.25;;;358.90;1177.60;;;;;;4957141;29;20035;-62
2021/04/17 11:06:14;;;;;;;21.65;15.98;;;358.90;1152.00;;;;;;4957258;29;20030;-57
2021/04/17 11:08:41;;;;;;;19.58;14.98;;;358.90;1152.00;;;;;;4975074;28;20377;-57
2021/04/17 11:11:21;;;;;;;34.40;22.77;;;358.80;1152.00;;;;;;4975371;28;20492;-57
2021/04/17 11:13:59;;;;;;;47.47;29.30;;;358.70;1177.60;;;;;;4956943;29;20042;-57
2021/04/17 11:16:41;;;;;;;29.08;20.90;;;358.80;1152.00;;;;;;4956720;29;20107;-60
2021/04/17 11:19:48;;;;;;;36.25;23.27;;;358.70;1152.00;;;;;;4957260;29;20038;-57
2021/04/17 11:22:21;;;;;;;22.00;15.15;;;358.70;1152.00;;;;;;4952954;29;20039;-58
2021/04/17 11:24:59;;;;;;;33.40;21.48;;;358.80;1126.40;;;;;;4956980;29;20035;-57
2021/04/17 11:27:30;;;;;;;23.42;17.10;;;358.80;1177.60;;;;;;4956654;29;20597;-58
2021/04/17 11:29:56;;;;;;;22.33;15.82;;;358.70;1126.40;;;;;;4956716;29;20492;-57
2021/04/17 11:32:21;;;;;;;36.00;22.25;;;358.80;1100.80;;;;;;4956302;28;20039;-58
2021/04/17 11:34:49;;;;;;;38.97;23.67;;;358.80;1126.40;;;;;;4956457;29;20034;-57
2021/04/17 11:37:15;;;;;;;22.58;15.45;;;358.90;1126.40;;;;;;4964730;28;20035;-56
2021/04/17 11:39:42;;;;;;;19.50;14.10;;;358.80;1126.40;;;;;;4975586;28;20030;-58
2021/04/17 11:42:10;;;;;;;21.58;16.00;;;358.70;1126.40;;;;;;4975441;28;20105;-62
2021/04/17 11:44:36;;;;;;;19.23;13.98;;;358.70;1126.40;;;;;;4975633;28;20023;-61
2021/04/17 11:47:02;;;;;;;23.55;15.45;;;358.60;1100.80;;;;;;4975637;28;20062;-59
2021/04/17 11:49:28;;;;;;;27.90;19.70;;;358.60;1152.00;;;;;;4975783;28;20061;-62
2021/04/17 11:51:53;;;;;;;21.05;14.98;;;358.70;1152.00;;;;;;4975539;28;20441;-57
2021/04/17 11:54:19;;;;;;;26.77;19.27;;;358.70;1126.40;;;;;;4965907;28;20114;-59
2021/04/17 11:56:45;;;;;;;22.05;14.63;;;358.70;1152.00;;;;;;4937878;29;20036;-57
2021/04/17 11:59:11;;;;;;;19.13;13.88;;;358.80;1126.40;;;;;;4956098;29;20024;-58
2021/04/17 12:01:36;;;;;;;20.13;14.60;;;358.90;1100.80;;;;;;4956035;29;20031;-56
2021/04/17 12:04:02;;;;;;;22.85;15.63;;;359.00;1126.40;;;;;;4955594;29;20024;-62
2021/04/17 12:06:29;;;;;;;22.55;15.27;;;359.10;1152.00;;;;;;4955826;28;20194;-60
2021/04/17 12:08:56;;;;;;;18.73;13.98;;;359.30;1100.80;;;;;;4955605;29;20497;-59